Hyundai Hongkong — 5BZL3 — position and weather

sailwx.info

Track history (hours):
 
Tides and Currents Weather Stations Pressure Air Temp Water Temp Dewpoint Dewpoint Depression Visibility Wind Speed Wind Dir Waves Ship Positions

Hyundai Hongkong

Last reported at 2018-Jun-12 22:03 UTC. Time now 2018-Jun-21 12:09 UTC.
Position N 22°18' E 114°06'.
Warning: this ship's position is 8 days out of date.

Length 304 m; draft 10.3 m.

Type: Cargo ship. MMSI: 212348000.

Date/timePositionNaut miles runAvg speedWind from/ knotsBaromVisibWave heightAir tempDewpointWater temp
2018-Jun-12 22:03N 22°18' E 114°06'110.4
2018-Jun-12 21:55N 22°19' E 114°07'325 8.4
2018-Jun-11 07:08N 22°25' E 119°58'213.8
2018-Jun-11 06:59N 22°26' E 119°60'613.4
2018-Jun-11 06:30N 22°31' E 120°05'713.1
2018-Jun-11 05:59N 22°32' E 120°12'510.8
2018-Jun-11 05:30N 22°33' E 120°17'2 3.1
2018-Jun-11 05:00N 22°34' E 120°19'0 0.0
2018-Jun-11 04:16N 22°34' E 120°19'0 0.0
2018-Jun-11 03:04N 22°34' E 120°19'0 0.0
2018-Jun-11 02:58N 22°34' E 120°19'0 0.0
2018-Jun-11 02:10N 22°34' E 120°19'0 0.0
2018-Jun-11 01:58N 22°34' E 120°19'0 0.0
2018-Jun-11 01:28N 22°34' E 120°19'0 0.0
2018-Jun-11 00:40N 22°34' E 120°19'0 0.0
2018-Jun-11 00:28N 22°34' E 120°19'0 0.0
2018-Jun-10 23:58N 22°34' E 120°19'0 0.0
2018-Jun-10 23:28N 22°34' E 120°19'0 0.0
2018-Jun-10 22:58N 22°34' E 120°19'0 0.0
2018-Jun-10 22:28N 22°34' E 120°19'0 0.0
2018-Jun-10 21:58N 22°34' E 120°19'0 0.0
2018-Jun-10 21:28N 22°34' E 120°19'0 0.0
2018-Jun-10 20:52N 22°34' E 120°19'0 0.0
2018-Jun-10 20:28N 22°34' E 120°19'0 0.0
2018-Jun-10 19:58N 22°34' E 120°19'0 0.0
2018-Jun-10 19:28N 22°34' E 120°19'0 0.0
2018-Jun-10 18:52N 22°34' E 120°19'0 0.0
2018-Jun-10 18:28N 22°34' E 120°19'0 0.0
2018-Jun-10 17:40N 22°34' E 120°19'0 0.0
2018-Jun-10 17:16N 22°34' E 120°19'0 0.0
2018-Jun-10 16:58N 22°34' E 120°19'0 0.0
2018-Jun-10 14:46N 22°34' E 120°19'0 0.0
2018-Jun-10 14:22N 22°34' E 120°19'2 2.0
2018-Jun-10 13:30N 22°33' E 120°17'1 2.4
2018-Jun-10 12:59N 22°33' E 120°16'2 3.9
2018-Jun-10 12:30N 22°32' E 120°14'4 7.6
2018-Jun-10 11:59N 22°35' E 120°11'714.3
2018-Jun-10 11:29N 22°40' E 120°06'714.9
2018-Jun-10 11:00N 22°45' E 120°01'714.8
2018-Jun-10 10:30N 22°51' E 119°55'  
Track history (hours):
 
Tides and Currents Weather Stations Pressure Air Temp Water Temp Dewpoint Dewpoint Depression Visibility Wind Speed Wind Dir Waves Ship Positions

Hyundai Hongkong

Last reported at 2018-Jun-12 22:03 UTC. Time now 2018-Jun-21 12:09 UTC.
Position N 22°18' E 114°06'.
Warning: this ship's position is 8 days out of date.

Length 304 m; draft 10.3 m.

Type: Cargo ship. MMSI: 212348000.

Date/timePositionNaut miles runAvg speedWind from/ knotsBaromVisibWave heightAir tempDewpointWater temp
2018-Jun-12 22:03N 22°18' E 114°06'110.4
2018-Jun-12 21:55N 22°19' E 114°07'325 8.4
2018-Jun-11 07:08N 22°25' E 119°58'213.8
2018-Jun-11 06:59N 22°26' E 119°60'613.4
2018-Jun-11 06:30N 22°31' E 120°05'713.1
2018-Jun-11 05:59N 22°32' E 120°12'510.8
2018-Jun-11 05:30N 22°33' E 120°17'2 3.1
2018-Jun-11 05:00N 22°34' E 120°19'0 0.0
2018-Jun-11 04:16N 22°34' E 120°19'0 0.0
2018-Jun-11 03:04N 22°34' E 120°19'0 0.0
2018-Jun-11 02:58N 22°34' E 120°19'0 0.0
2018-Jun-11 02:10N 22°34' E 120°19'0 0.0
2018-Jun-11 01:58N 22°34' E 120°19'0 0.0
2018-Jun-11 01:28N 22°34' E 120°19'0 0.0
2018-Jun-11 00:40N 22°34' E 120°19'0 0.0
2018-Jun-11 00:28N 22°34' E 120°19'0 0.0
2018-Jun-10 23:58N 22°34' E 120°19'0 0.0
2018-Jun-10 23:28N 22°34' E 120°19'0 0.0
2018-Jun-10 22:58N 22°34' E 120°19'0 0.0
2018-Jun-10 22:28N 22°34' E 120°19'0 0.0
2018-Jun-10 21:58N 22°34' E 120°19'0 0.0
2018-Jun-10 21:28N 22°34' E 120°19'0 0.0
2018-Jun-10 20:52N 22°34' E 120°19'0 0.0
2018-Jun-10 20:28N 22°34' E 120°19'0 0.0
2018-Jun-10 19:58N 22°34' E 120°19'0 0.0
2018-Jun-10 19:28N 22°34' E 120°19'0 0.0
2018-Jun-10 18:52N 22°34' E 120°19'0 0.0
2018-Jun-10 18:28N 22°34' E 120°19'0 0.0
2018-Jun-10 17:40N 22°34' E 120°19'0 0.0
2018-Jun-10 17:16N 22°34' E 120°19'0 0.0
2018-Jun-10 16:58N 22°34' E 120°19'0 0.0
2018-Jun-10 14:46N 22°34' E 120°19'0 0.0
2018-Jun-10 14:22N 22°34' E 120°19'2 2.0
2018-Jun-10 13:30N 22°33' E 120°17'1 2.4
2018-Jun-10 12:59N 22°33' E 120°16'2 3.9
2018-Jun-10 12:30N 22°32' E 120°14'4 7.6
2018-Jun-10 11:59N 22°35' E 120°11'714.3
2018-Jun-10 11:29N 22°40' E 120°06'714.9
2018-Jun-10 11:00N 22°45' E 120°01'714.8
2018-Jun-10 10:30N 22°51' E 119°55'  

Dump ship's entire track history